Time;durP1;ratioP1;P1;durP2;ratioP2;P2;SDS_P1;SDS_P2;PMS_P1;PMS_P2;Temp;Humidity;BMP_temperature;BMP_pressure;BME280_temperature;BME280_humidity;BME280_pressure;Samples;Min_cycle;Max_cycle;Signal;HPM_P1;HPM_P2
2024/01/31 00:00:45;;;;;;;1.70;1.30;;;8.50;32.20;;;;;;4989872;28;20052;-76
2024/01/31 00:03:12;;;;;;;1.58;1.40;;;8.50;37.10;;;;;;4989779;28;20062;-77
2024/01/31 00:05:39;;;;;;;1.67;1.30;;;8.50;45.40;;;;;;5007213;28;20053;-76
2024/01/31 00:08:06;;;;;;;1.83;1.35;;;8.50;33.90;;;;;;5005519;28;20056;-76
2024/01/31 00:10:33;;;;;;;1.80;1.25;;;8.40;36.30;;;;;;4989759;28;20054;-76
2024/01/31 00:13:00;;;;;;;2.00;1.65;;;8.40;36.80;;;;;;4988845;28;20058;-76
2024/01/31 00:15:27;;;;;;;2.08;1.40;;;8.40;37.40;;;;;;5007098;28;20101;-76
2024/01/31 00:17:56;;;;;;;1.48;1.20;;;8.40;40.10;;;;;;5006790;28;20056;-76
2024/01/31 00:20:24;;;;;;;1.73;1.30;;;8.40;43.10;;;;;;5007101;28;20049;-77
2024/01/31 00:22:50;;;;;;;1.77;1.13;;;8.40;49.20;;;;;;5004752;28;20076;-76
2024/01/31 00:25:17;;;;;;;1.70;1.08;;;8.40;48.70;;;;;;5003892;28;20072;-76
2024/01/31 00:27:45;;;;;;;2.15;1.17;;;8.40;48.30;;;;;;5004024;28;20054;-77
2024/01/31 00:30:13;;;;;;;2.20;1.55;;;8.40;44.80;;;;;;4972565;28;20415;-76
2024/01/31 00:32:40;;;;;;;2.50;1.50;;;8.30;46.80;;;;;;4972589;28;20072;-77
2024/01/31 00:35:07;;;;;;;2.00;1.58;;;8.30;44.60;;;;;;4988058;28;20136;-76
2024/01/31 00:37:34;;;;;;;2.72;1.75;;;8.30;41.80;;;;;;5004131;28;20060;-76
2024/01/31 00:40:03;;;;;;;2.42;1.80;;;8.30;43.20;;;;;;5005595;28;20393;-77
2024/01/31 00:42:30;;;;;;;1.85;1.52;;;8.30;41.60;;;;;;5005525;28;20054;-76
2024/01/31 00:44:57;;;;;;;1.45;1.30;;;8.20;40.60;;;;;;5004851;28;20053;-77
2024/01/31 00:47:24;;;;;;;1.75;1.48;;;8.20;44.20;;;;;;5005446;28;20405;-77
2024/01/31 00:49:51;;;;;;;1.50;1.02;;;8.30;40.30;;;;;;4988004;28;20045;-76
2024/01/31 00:52:18;;;;;;;1.55;1.23;;;8.20;34.40;;;;;;5003362;28;20056;-77
2024/01/31 00:54:45;;;;;;;2.05;1.55;;;8.30;39.10;;;;;;4987221;28;20046;-77
2024/01/31 00:57:14;;;;;;;1.83;1.40;;;8.30;35.80;;;;;;5005267;28;20075;-77
2024/01/31 00:59:42;;;;;;;1.73;1.38;;;8.30;34.60;;;;;;4987597;28;20050;-77
2024/01/31 01:02:09;;;;;;;1.67;1.50;;;8.30;34.10;;;;;;5003667;28;20716;-77
2024/01/31 01:04:36;;;;;;;1.45;1.13;;;8.30;28.80;;;;;;4984517;28;20050;-76
2024/01/31 01:07:04;;;;;;;1.52;1.10;;;8.30;34.20;;;;;;5001927;28;20896;-77
2024/01/31 01:09:31;;;;;;;1.50;1.00;;;8.30;34.20;;;;;;5004503;28;20104;-76
2024/01/31 01:11:58;;;;;;;1.40;1.05;;;8.30;37.00;;;;;;5004745;28;20825;-77
2024/01/31 01:14:24;;;;;;;1.58;1.20;;;8.30;35.80;;;;;;5004346;28;20053;-76
2024/01/31 01:16:51;;;;;;;1.00;0.88;;;8.30;37.70;;;;;;4971347;28;20261;-77
2024/01/31 01:19:18;;;;;;;1.67;1.23;;;8.30;37.40;;;;;;4987638;28;20112;-77
2024/01/31 01:21:45;;;;;;;1.63;1.23;;;8.30;40.50;;;;;;4970254;28;20061;-76
2024/01/31 01:24:12;;;;;;;1.83;1.00;;;8.30;11.60;;;;;;4986538;28;20042;-77
2024/01/31 01:26:40;;;;;;;1.63;1.05;;;8.30;12.30;;;;;;4987774;28;20054;-77
2024/01/31 01:29:07;;;;;;;1.92;1.00;;;8.30;14.70;;;;;;4970903;28;20120;-77
2024/01/31 01:31:34;;;;;;;1.55;1.15;;;8.30;13.10;;;;;;5003864;28;20054;-77
2024/01/31 01:34:02;;;;;;;1.05;0.80;;;8.20;12.20;;;;;;4951749;28;1152595;-76
2024/01/31 01:36:29;;;;;;;1.60;1.17;;;8.20;51.80;;;;;;4987753;28;20821;-76
2024/01/31 01:38:56;;;;;;;1.38;1.20;;;8.20;62.80;;;;;;5004820;28;20145;-76
2024/01/31 01:41:25;;;;;;;1.95;1.30;;;8.20;50.00;;;;;;4988153;28;20472;-76
2024/01/31 01:43:53;;;;;;;2.20;1.50;;;8.20;47.40;;;;;;4987741;28;20096;-76
2024/01/31 01:46:21;;;;;;;1.17;1.08;;;8.20;47.70;;;;;;4987978;28;20495;-76
2024/01/31 01:48:48;;;;;;;1.00;0.90;;;8.20;48.60;;;;;;4987651;28;20069;-76
2024/01/31 01:51:17;;;;;;;2.00;1.60;;;8.20;44.10;;;;;;4983777;28;20222;-76
2024/01/31 01:53:45;;;;;;;1.83;1.30;;;8.20;45.00;;;;;;4975441;28;20136;-76
2024/01/31 01:56:16;;;;;;;2.15;1.40;;;8.20;36.00;;;;;;4988549;28;20071;-76
2024/01/31 01:58:43;;;;;;;2.22;1.35;;;8.20;41.60;;;;;;5003787;28;20057;-77
2024/01/31 02:01:11;;;;;;;1.38;1.13;;;8.20;42.70;;;;;;5004913;28;20057;-76
2024/01/31 02:03:38;;;;;;;1.98;1.30;;;8.20;38.30;;;;;;5003106;28;20077;-76
2024/01/31 02:06:06;;;;;;;1.23;0.98;;;8.10;40.80;;;;;;4987168;28;20050;-77
2024/01/31 02:08:33;;;;;;;1.70;1.30;;;8.10;38.70;;;;;;5001799;28;20049;-77
2024/01/31 02:11:01;;;;;;;1.50;1.25;;;8.10;47.00;;;;;;4987404;28;20223;-76
2024/01/31 02:13:28;;;;;;;1.98;1.40;;;8.10;33.60;;;;;;5004172;28;20061;-75
2024/01/31 02:15:56;;;;;;;1.45;1.08;;;8.20;27.90;;;;;;4987071;28;20135;-75
2024/01/31 02:18:25;;;;;;;1.70;1.27;;;8.10;24.20;;;;;;4970922;28;20054;-76
2024/01/31 02:20:53;;;;;;;1.30;0.88;;;8.20;28.10;;;;;;5003513;28;20050;-77
2024/01/31 02:23:22;;;;;;;1.70;0.85;;;8.20;27.70;;;;;;5001673;28;20060;-77
2024/01/31 02:25:49;;;;;;;1.73;1.30;;;8.20;31.80;;;;;;4980939;28;20049;-76
2024/01/31 02:28:17;;;;;;;1.50;1.00;;;8.20;24.20;;;;;;4971146;28;20050;-78
2024/01/31 02:30:44;;;;;;;1.63;1.23;;;8.20;41.90;;;;;;5000038;28;20128;-76
2024/01/31 02:33:11;;;;;;;1.63;0.98;;;8.20;25.50;;;;;;5023173;28;20058;-77
2024/01/31 02:35:38;;;;;;;1.50;1.30;;;8.20;26.90;;;;;;5006667;28;20133;-77
2024/01/31 02:38:05;;;;;;;1.00;0.80;;;8.10;24.50;;;;;;4991282;28;20057;-77
2024/01/31 02:40:32;;;;;;;1.42;1.00;;;8.10;19.20;;;;;;4990613;28;20084;-77
2024/01/31 02:42:59;;;;;;;1.30;0.90;;;8.20;23.50;;;;;;4990539;28;20594;-77
2024/01/31 02:45:29;;;;;;;1.38;1.02;;;8.10;16.70;;;;;;4988314;28;20058;-76
2024/01/31 02:47:56;;;;;;;1.55;1.05;;;8.10;19.80;;;;;;5005435;28;20061;-76
2024/01/31 02:50:26;;;;;;;1.48;1.15;;;8.10;17.70;;;;;;5021198;28;20519;-76
2024/01/31 02:52:54;;;;;;;1.15;1.00;;;8.10;27.50;;;;;;5003334;28;20653;-76
2024/01/31 02:55:21;;;;;;;0.82;0.60;;;8.10;31.70;;;;;;5004425;28;20467;-76
2024/01/31 02:57:49;;;;;;;0.85;0.63;;;8.10;25.00;;;;;;5005313;28;20052;-76
2024/01/31 03:00:16;;;;;;;1.60;0.85;;;8.10;12.40;;;;;;5005283;28;20046;-76
2024/01/31 03:02:43;;;;;;;0.60;0.60;;;8.10;21.80;;;;;;5004379;28;20448;-76
2024/01/31 03:05:11;;;;;;;1.00;0.52;;;8.10;20.20;;;;;;4988655;28;20049;-76
2024/01/31 03:07:39;;;;;;;0.73;0.60;;;8.10;25.00;;;;;;5003567;28;20046;-77
2024/01/31 03:10:09;;;;;;;1.10;1.00;;;8.10;22.70;;;;;;4972742;28;20054;-76
2024/01/31 03:12:37;;;;;;;0.52;0.50;;;8.10;19.50;;;;;;4973323;28;20539;-77
2024/01/31 03:15:06;;;;;;;0.52;0.43;;;8.10;25.70;;;;;;4972477;28;20054;-76
2024/01/31 03:17:35;;;;;;;0.80;0.50;;;8.00;15.90;;;;;;5004640;28;20046;-77
2024/01/31 03:20:05;;;;;;;0.70;0.50;;;8.10;17.70;;;;;;4989268;28;20517;-76
2024/01/31 03:22:34;;;;;;;0.55;0.50;;;8.10;18.70;;;;;;4987450;28;20049;-77
2024/01/31 03:25:02;;;;;;;0.40;0.40;;;8.10;16.70;;;;;;4988944;28;20054;-77
2024/01/31 03:27:29;;;;;;;0.30;0.30;;;8.10;16.80;;;;;;4988880;28;20892;-77
2024/01/31 03:30:01;;;;;;;0.30;0.30;;;8.10;17.30;;;;;;4988849;28;20178;-76
2024/01/31 03:32:34;;;;;;;0.45;0.45;;;8.10;14.30;;;;;;4989258;28;20141;-76
2024/01/31 03:35:01;;;;;;;0.20;0.20;;;8.00;13.00;;;;;;5004496;28;20064;-76
2024/01/31 03:37:28;;;;;;;0.30;0.30;;;8.00;14.80;;;;;;4986918;28;20131;-76
2024/01/31 03:39:56;;;;;;;0.52;0.52;;;8.00;10.10;;;;;;4984963;28;20080;-76
2024/01/31 03:42:23;;;;;;;0.43;0.30;;;8.00;7.70;;;;;;4972509;28;20071;-76
2024/01/31 03:44:49;;;;;;;0.30;0.30;;;8.00;42.30;;;;;;4967417;28;20050;-76
2024/01/31 03:47:16;;;;;;;0.30;0.30;;;8.00;26.80;;;;;;5002614;28;20057;-77
2024/01/31 03:49:45;;;;;;;0.30;0.30;;;7.90;25.60;;;;;;4987101;28;20061;-76
2024/01/31 03:52:12;;;;;;;0.73;0.32;;;8.00;8.40;;;;;;4985565;28;20137;-76
2024/01/31 03:54:39;;;;;;;0.32;0.32;;;8.00;11.80;;;;;;4986432;28;20054;-76
2024/01/31 03:57:08;;;;;;;0.30;0.30;;;8.00;38.10;;;;;;5004374;28;20073;-77
2024/01/31 03:59:35;;;;;;;0.50;0.50;;;8.00;9.20;;;;;;4972136;28;20117;-76
2024/01/31 04:02:05;;;;;;;0.30;0.30;;;8.00;9.10;;;;;;5004645;28;20050;-78
2024/01/31 04:04:32;;;;;;;0.20;0.20;;;8.00;16.10;;;;;;4971808;28;20519;-76
2024/01/31 04:07:00;;;;;;;0.40;0.40;;;8.00;28.30;;;;;;5003050;28;20108;-76
2024/01/31 04:09:27;;;;;;;0.30;0.30;;;8.00;24.10;;;;;;4971628;28;20077;-76
2024/01/31 04:11:54;;;;;;;0.45;0.40;;;8.00;10.00;;;;;;4972045;28;20049;-76
2024/01/31 04:14:21;;;;;;;0.40;0.40;;;8.00;1.00;;;;;;5004194;28;20084;-77
2024/01/31 04:16:48;;;;;;;0.47;0.40;;;8.00;1.00;;;;;;4972011;28;20444;-76
2024/01/31 04:19:15;;;;;;;0.50;0.40;;;7.90;1.00;;;;;;4971871;28;20462;-76
2024/01/31 04:21:42;;;;;;;0.20;0.20;;;7.90;1.00;;;;;;4987948;28;20108;-77
2024/01/31 04:24:09;;;;;;;0.22;0.22;;;7.90;1.00;;;;;;4970660;28;20061;-76
2024/01/31 04:26:43;;;;;;;0.45;0.30;;;7.80;1.00;;;;;;5004544;28;20046;-77
2024/01/31 04:29:12;;;;;;;0.20;0.20;;;7.80;1.00;;;;;;4991335;28;20081;-76
2024/01/31 04:31:38;;;;;;;0.15;0.15;;;7.90;1.00;;;;;;4991405;28;20480;-76
2024/01/31 04:34:05;;;;;;;0.52;0.30;;;7.90;1.00;;;;;;4991061;28;20062;-76
2024/01/31 04:36:33;;;;;;;0.30;0.30;;;7.90;1.00;;;;;;4991472;28;20045;-77
2024/01/31 04:39:00;;;;;;;0.20;0.20;;;7.90;1.00;;;;;;5006270;28;20137;-76
2024/01/31 04:41:27;;;;;;;0.10;0.10;;;7.90;1.00;;;;;;5007594;28;20085;-76
2024/01/31 04:43:54;;;;;;;0.40;0.30;;;7.90;1.00;;;;;;4991195;28;20057;-75
2024/01/31 04:46:21;;;;;;;0.20;0.20;;;7.90;12.40;;;;;;4991528;28;20046;-77
2024/01/31 04:48:48;;;;;;;0.35;0.30;;;7.80;1.00;;;;;;5007543;28;20100;-77
2024/01/31 04:51:16;;;;;;;0.20;0.20;;;7.80;1.00;;;;;;4966950;28;20227;-77
2024/01/31 04:53:43;;;;;;;0.20;0.20;;;7.80;1.00;;;;;;4986205;28;20050;-77
2024/01/31 04:56:10;;;;;;;0.30;0.30;;;7.80;1.00;;;;;;4997467;28;20054;-76
2024/01/31 04:58:37;;;;;;;0.43;0.30;;;7.80;1.00;;;;;;5007487;28;20056;-76
2024/01/31 05:01:05;;;;;;;0.30;0.30;;;7.80;1.00;;;;;;5007351;28;20054;-77
2024/01/31 05:03:32;;;;;;;0.20;0.20;;;7.80;1.00;;;;;;4990884;28;20062;-77
2024/01/31 05:05:59;;;;;;;0.28;0.28;;;7.80;1.00;;;;;;5006639;28;20535;-76
2024/01/31 05:08:29;;;;;;;0.38;0.30;;;7.70;1.00;;;;;;4989423;28;20054;-77
2024/01/31 05:10:57;;;;;;;0.40;0.30;;;7.70;1.00;;;;;;4990526;28;20092;-77
2024/01/31 05:13:25;;;;;;;0.30;0.30;;;7.70;1.00;;;;;;5007379;28;20180;-76
2024/01/31 05:15:53;;;;;;;0.40;0.32;;;7.70;1.00;;;;;;5007256;28;20199;-77
2024/01/31 05:18:19;;;;;;;0.40;0.40;;;7.70;1.00;;;;;;5008050;28;20484;-77
2024/01/31 05:20:46;;;;;;;0.35;0.32;;;7.70;1.00;;;;;;4990693;28;20060;-76
2024/01/31 05:23:14;;;;;;;0.40;0.40;;;7.60;1.00;;;;;;5005030;28;20128;-76
2024/01/31 05:25:41;;;;;;;0.75;0.50;;;7.60;1.00;;;;;;5006173;28;20085;-76
2024/01/31 05:28:08;;;;;;;0.60;0.40;;;7.70;1.00;;;;;;4993235;28;20368;-77
2024/01/31 05:30:35;;;;;;;0.40;0.40;;;7.70;1.00;;;;;;5007978;28;20057;-76
2024/01/31 05:33:02;;;;;;;0.52;0.50;;;7.60;1.00;;;;;;5000624;28;20057;-76
2024/01/31 05:35:29;;;;;;;0.20;0.20;;;7.60;1.00;;;;;;5006727;28;20057;-76
2024/01/31 05:37:56;;;;;;;0.32;0.32;;;7.60;1.00;;;;;;4988801;28;20053;-76
2024/01/31 05:40:23;;;;;;;0.40;0.40;;;7.60;1.00;;;;;;5006482;28;20498;-76
2024/01/31 05:42:50;;;;;;;0.40;0.32;;;7.60;1.00;;;;;;4975595;28;20074;-76
2024/01/31 05:45:19;;;;;;;0.40;0.40;;;7.60;1.00;;;;;;4971669;28;20141;-76
2024/01/31 05:47:46;;;;;;;0.50;0.50;;;7.60;1.00;;;;;;4973514;28;20049;-76
2024/01/31 05:50:13;;;;;;;0.60;0.60;;;7.60;1.00;;;;;;4968219;28;20046;-76
2024/01/31 05:52:40;;;;;;;0.55;0.50;;;7.50;1.00;;;;;;4967009;28;20050;-76
2024/01/31 05:55:07;;;;;;;0.50;0.47;;;7.50;1.00;;;;;;4969146;28;20116;-76
2024/01/31 05:57:34;;;;;;;0.40;0.40;;;7.50;1.00;;;;;;4986598;28;20046;-75
2024/01/31 06:00:07;;;;;;;0.77;0.50;;;7.50;1.00;;;;;;4975792;28;20060;-76
2024/01/31 06:02:37;;;;;;;0.40;0.40;;;7.50;1.00;;;;;;4957377;28;20056;-75
2024/01/31 06:05:05;;;;;;;0.60;0.57;;;7.60;1.00;;;;;;4983157;28;20054;-76
2024/01/31 06:07:32;;;;;;;0.70;0.65;;;7.50;1.00;;;;;;4982023;28;20640;-76
2024/01/31 06:09:59;;;;;;;0.43;0.40;;;7.50;1.00;;;;;;4996141;28;20046;-76
2024/01/31 06:12:26;;;;;;;0.50;0.50;;;7.60;1.00;;;;;;4976217;28;20137;-76
2024/01/31 06:14:53;;;;;;;0.70;0.40;;;7.60;1.00;;;;;;4955166;28;20056;-77
2024/01/31 06:17:19;;;;;;;0.63;0.50;;;7.50;1.00;;;;;;4967355;28;20088;-75
2024/01/31 06:19:47;;;;;;;0.30;0.30;;;7.60;1.00;;;;;;4980864;28;20041;-77
2024/01/31 06:22:15;;;;;;;0.38;0.38;;;7.60;1.00;;;;;;4969599;28;20523;-77
2024/01/31 06:24:42;;;;;;;1.20;0.63;;;7.60;1.00;;;;;;4951491;28;20045;-76
2024/01/31 06:27:10;;;;;;;0.40;0.40;;;7.60;1.00;;;;;;4978295;28;20042;-77
2024/01/31 06:29:38;;;;;;;0.40;0.40;;;7.60;15.20;;;;;;4967851;28;20050;-76
2024/01/31 06:32:06;;;;;;;0.57;0.45;;;7.60;22.00;;;;;;4996392;28;20038;-77
2024/01/31 06:34:34;;;;;;;0.50;0.50;;;7.50;13.20;;;;;;4961271;28;20053;-77
2024/01/31 06:37:01;;;;;;;0.40;0.30;;;7.50;16.10;;;;;;4930914;28;20051;-76
2024/01/31 06:39:29;;;;;;;0.50;0.50;;;7.50;21.20;;;;;;4962593;28;20042;-77
2024/01/31 06:41:56;;;;;;;0.80;0.50;;;7.50;10.80;;;;;;4948864;28;20046;-77
2024/01/31 06:44:23;;;;;;;0.70;0.52;;;7.50;1.00;;;;;;4983085;28;20058;-77
2024/01/31 06:46:50;;;;;;;0.50;0.50;;;7.50;1.00;;;;;;4947936;28;20077;-77
2024/01/31 06:49:17;;;;;;;0.88;0.63;;;7.50;1.00;;;;;;4952274;28;20050;-77
2024/01/31 06:51:44;;;;;;;0.85;0.52;;;7.50;31.20;;;;;;4949841;28;20046;-77
2024/01/31 06:54:12;;;;;;;0.65;0.60;;;7.40;1.00;;;;;;4959525;28;20046;-77
2024/01/31 06:56:39;;;;;;;0.63;0.52;;;7.50;1.00;;;;;;4962385;28;20050;-77
2024/01/31 06:59:06;;;;;;;0.50;0.50;;;7.50;1.00;;;;;;4960120;28;20524;-77
2024/01/31 07:01:33;;;;;;;0.40;0.40;;;7.50;1.00;;;;;;4960924;28;20061;-77
2024/01/31 07:04:01;;;;;;;0.50;0.50;;;7.50;1.00;;;;;;4961055;28;20050;-77
2024/01/31 07:06:29;;;;;;;0.40;0.40;;;7.50;1.00;;;;;;4961952;28;20141;-76
2024/01/31 07:08:56;;;;;;;0.40;0.40;;;7.50;1.00;;;;;;4944371;28;20047;-77
2024/01/31 07:11:24;;;;;;;0.80;0.50;;;7.50;1.00;;;;;;4945655;28;20120;-77
2024/01/31 07:13:51;;;;;;;0.50;0.50;;;7.50;1.00;;;;;;4945338;28;20043;-77
2024/01/31 07:16:18;;;;;;;1.58;0.63;;;7.50;1.00;;;;;;4962746;28;20134;-77
2024/01/31 07:18:45;;;;;;;0.57;0.52;;;7.40;1.00;;;;;;4964782;28;20075;-76
2024/01/31 07:21:23;;;;;;;0.75;0.55;;;7.40;1.00;;;;;;4959390;28;20064;-78
2024/01/31 07:23:51;;;;;;;0.30;0.30;;;7.40;1.00;;;;;;4964390;28;20046;-77
2024/01/31 07:26:22;;;;;;;0.40;0.40;;;7.40;1.00;;;;;;4948924;28;20101;-77
2024/01/31 07:28:50;;;;;;;0.40;0.40;;;7.50;1.00;;;;;;4942638;28;20069;-77
2024/01/31 07:31:20;;;;;;;0.60;0.40;;;7.40;1.00;;;;;;4927168;28;20779;-76
2024/01/31 07:33:47;;;;;;;0.60;0.60;;;7.40;1.00;;;;;;4973691;28;20065;-76
2024/01/31 07:36:14;;;;;;;0.50;0.50;;;7.40;1.00;;;;;;4964295;28;20077;-77
2024/01/31 07:38:45;;;;;;;0.73;0.50;;;7.40;1.00;;;;;;4947940;28;20116;-77
2024/01/31 07:41:12;;;;;;;0.50;0.50;;;7.40;1.00;;;;;;4967202;28;20504;-76
2024/01/31 07:43:39;;;;;;;0.90;0.50;;;7.40;1.00;;;;;;4984024;28;20048;-78
2024/01/31 07:46:10;;;;;;;0.73;0.50;;;7.50;1.00;;;;;;4971803;28;20052;-77
2024/01/31 07:48:37;;;;;;;0.77;0.50;;;7.50;1.00;;;;;;4991397;28;20073;-77
2024/01/31 07:51:05;;;;;;;1.10;0.73;;;7.50;1.00;;;;;;4971118;28;20054;-77
2024/01/31 07:53:32;;;;;;;0.30;0.30;;;7.50;1.00;;;;;;4979901;28;20069;-77
2024/01/31 07:56:00;;;;;;;0.30;0.30;;;7.50;26.70;;;;;;4959864;28;20527;-77
2024/01/31 07:58:31;;;;;;;0.50;0.50;;;7.60;25.20;;;;;;4962696;28;20056;-77
2024/01/31 08:00:58;;;;;;;0.60;0.45;;;7.60;26.40;;;;;;4965195;28;20061;-77
2024/01/31 08:03:26;;;;;;;0.52;0.50;;;7.60;26.10;;;;;;4966367;28;20038;-77
2024/01/31 08:05:53;;;;;;;0.47;0.40;;;7.60;1.00;;;;;;4981847;28;20492;-77
2024/01/31 08:08:21;;;;;;;0.60;0.50;;;7.70;1.00;;;;;;4965215;28;20038;-77
2024/01/31 08:10:49;;;;;;;0.63;0.50;;;7.70;1.00;;;;;;4987911;28;20050;-76
2024/01/31 08:13:16;;;;;;;0.40;0.40;;;7.70;1.00;;;;;;5002878;28;20139;-77
2024/01/31 08:15:43;;;;;;;0.40;0.35;;;7.80;1.00;;;;;;4971929;28;20127;-77
2024/01/31 08:18:10;;;;;;;0.75;0.50;;;7.80;1.00;;;;;;4997079;28;20045;-77
2024/01/31 08:20:37;;;;;;;0.40;0.40;;;7.80;1.00;;;;;;4985587;28;20104;-76
2024/01/31 08:23:04;;;;;;;0.40;0.32;;;7.80;1.00;;;;;;4963681;28;20057;-77
2024/01/31 08:25:31;;;;;;;0.47;0.35;;;7.80;1.00;;;;;;4981140;28;20060;-80
2024/01/31 08:27:59;;;;;;;0.90;0.60;;;7.80;1.00;;;;;;4984268;28;20404;-79
2024/01/31 08:30:26;;;;;;;0.68;0.35;;;7.80;1.00;;;;;;4971429;28;21016;-78
2024/01/31 08:32:53;;;;;;;0.80;0.50;;;7.80;1.00;;;;;;4990613;28;20050;-78
2024/01/31 08:35:21;;;;;;;0.88;0.52;;;7.80;1.00;;;;;;4988002;28;20127;-78
2024/01/31 08:37:48;;;;;;;0.40;0.40;;;7.90;1.00;;;;;;4984766;28;20050;-78
2024/01/31 08:40:15;;;;;;;0.77;0.50;;;7.80;1.00;;;;;;5009136;28;20053;-79
2024/01/31 08:42:47;;;;;;;0.60;0.57;;;7.80;1.00;;;;;;4988651;28;20053;-78
2024/01/31 08:45:14;;;;;;;0.82;0.60;;;7.90;1.00;;;;;;4984574;28;20045;-79
2024/01/31 08:47:41;;;;;;;0.65;0.63;;;7.90;1.00;;;;;;5015471;28;20090;-78
2024/01/31 08:50:09;;;;;;;0.60;0.50;;;7.90;1.00;;;;;;5019034;28;20046;-78
2024/01/31 08:52:37;;;;;;;0.68;0.68;;;7.90;1.00;;;;;;4969166;28;20123;-79
2024/01/31 08:55:05;;;;;;;1.25;0.77;;;7.90;1.00;;;;;;4987789;28;20504;-78
2024/01/31 08:57:33;;;;;;;0.73;0.52;;;7.90;1.00;;;;;;4984610;28;20129;-79
2024/01/31 08:59:59;;;;;;;0.85;0.85;;;7.90;1.00;;;;;;5002772;28;20046;-78
2024/01/31 09:02:28;;;;;;;0.93;0.70;;;8.00;1.00;;;;;;4985365;28;20125;-78
2024/01/31 09:04:55;;;;;;;0.55;0.50;;;8.00;1.00;;;;;;5001703;28;20623;-78
2024/01/31 09:07:22;;;;;;;1.27;0.70;;;8.00;1.00;;;;;;5001256;28;20080;-78
2024/01/31 09:09:49;;;;;;;0.70;0.50;;;8.10;1.00;;;;;;4980684;28;20061;-79
2024/01/31 09:12:16;;;;;;;0.90;0.52;;;8.10;1.00;;;;;;4986886;28;20049;-78
2024/01/31 09:14:43;;;;;;;0.57;0.52;;;8.20;1.00;;;;;;4971110;28;20046;-82
2024/01/31 09:17:10;;;;;;;0.50;0.50;;;8.10;1.00;;;;;;5000425;28;20042;-78
2024/01/31 09:19:40;;;;;;;0.73;0.52;;;8.20;1.00;;;;;;5017551;28;20145;-78
2024/01/31 09:22:12;;;;;;;0.52;0.50;;;8.20;1.00;;;;;;4988545;28;20069;-78
2024/01/31 09:24:39;;;;;;;1.02;0.65;;;8.20;1.00;;;;;;4967948;28;20169;-78
2024/01/31 09:27:06;;;;;;;1.77;0.68;;;8.30;1.00;;;;;;5001065;28;20050;-79
2024/01/31 09:29:33;;;;;;;0.75;0.55;;;8.30;1.00;;;;;;4981404;28;20054;-78
2024/01/31 09:32:02;;;;;;;0.77;0.57;;;8.30;24.40;;;;;;4985905;28;20054;-78
2024/01/31 09:34:30;;;;;;;1.25;0.80;;;8.30;1.00;;;;;;4935000;28;20050;-79
2024/01/31 09:36:57;;;;;;;1.02;0.75;;;8.30;1.00;;;;;;4954554;28;20050;-78
2024/01/31 09:39:25;;;;;;;1.00;0.70;;;8.40;1.00;;;;;;4928456;28;20047;-79
2024/01/31 09:41:53;;;;;;;0.80;0.60;;;8.40;1.00;;;;;;4952103;28;20046;-79
2024/01/31 09:44:20;;;;;;;0.88;0.75;;;8.40;1.00;;;;;;4979661;28;20053;-79
2024/01/31 09:46:47;;;;;;;0.73;0.60;;;8.40;1.00;;;;;;4952989;28;20078;-79
2024/01/31 09:49:14;;;;;;;1.55;0.60;;;8.40;1.00;;;;;;4936453;28;20081;-83
2024/01/31 09:51:43;;;;;;;0.95;0.75;;;8.50;1.00;;;;;;4951951;28;20181;-78
2024/01/31 09:54:10;;;;;;;0.63;0.60;;;8.50;1.00;;;;;;4969774;28;20047;-79
2024/01/31 09:56:37;;;;;;;0.50;0.50;;;8.60;1.00;;;;;;4957147;28;20515;-78
2024/01/31 09:59:04;;;;;;;1.48;0.60;;;8.60;1.00;;;;;;4980383;28;20381;-77
2024/01/31 10:01:31;;;;;;;0.63;0.63;;;8.60;1.00;;;;;;4947196;28;20087;-78
2024/01/31 10:03:59;;;;;;;1.25;1.00;;;8.60;1.00;;;;;;4964980;28;20531;-77
2024/01/31 10:06:27;;;;;;;1.08;0.90;;;8.60;1.00;;;;;;4954582;28;20050;-77
2024/01/31 10:08:56;;;;;;;2.08;1.00;;;8.60;1.00;;;;;;4960254;28;20165;-78
2024/01/31 10:11:25;;;;;;;3.47;1.33;;;8.60;2.00;;;;;;4947774;28;20109;-78
2024/01/31 10:13:52;;;;;;;1.23;1.08;;;8.60;1.00;;;;;;4951822;28;20054;-78
2024/01/31 10:16:19;;;;;;;1.25;0.85;;;8.60;1.00;;;;;;4975255;28;20062;-78
2024/01/31 10:18:46;;;;;;;1.55;0.95;;;8.60;1.00;;;;;;4959473;28;20047;-77
2024/01/31 10:21:13;;;;;;;1.92;1.10;;;8.60;42.40;;;;;;4983693;28;20077;-77
2024/01/31 10:23:40;;;;;;;2.58;1.10;;;8.60;1.00;;;;;;4956240;28;20074;-78
2024/01/31 10:26:07;;;;;;;2.58;1.42;;;8.70;1.00;;;;;;4968101;28;20142;-77
2024/01/31 10:28:38;;;;;;;0.73;0.60;;;8.70;1.00;;;;;;4940561;28;20061;-78
2024/01/31 10:31:11;;;;;;;0.73;0.60;;;8.80;22.80;;;;;;4950866;28;20057;-77
2024/01/31 10:33:38;;;;;;;1.58;0.85;;;8.80;35.40;;;;;;4962764;28;20054;-77
2024/01/31 10:36:07;;;;;;;1.00;0.70;;;8.90;1.00;;;;;;4970248;28;20410;-77
2024/01/31 10:38:53;;;;;;;1.25;0.80;;;9.00;1.00;;;;;;4974335;28;20664;-78
2024/01/31 10:41:21;;;;;;;3.13;1.08;;;8.90;1.00;;;;;;4949129;28;20138;-78
2024/01/31 10:43:48;;;;;;;1.52;1.00;;;8.90;1.00;;;;;;4982116;28;20137;-78
2024/01/31 10:46:15;;;;;;;3.17;1.23;;;8.90;1.00;;;;;;4991751;28;20452;-76
2024/01/31 10:48:42;;;;;;;1.83;0.90;;;8.80;1.00;;;;;;4986510;28;20053;-76
2024/01/31 10:51:09;;;;;;;1.48;1.05;;;8.80;1.00;;;;;;4968192;28;20054;-76
2024/01/31 10:53:36;;;;;;;0.65;0.65;;;8.70;1.00;;;;;;4966226;28;20048;-76
2024/01/31 10:56:04;;;;;;;2.05;1.20;;;8.70;1.00;;;;;;4965659;28;20125;-77
2024/01/31 10:58:31;;;;;;;0.85;0.70;;;8.70;1.00;;;;;;4998754;28;20496;-77
2024/01/31 11:00:58;;;;;;;1.35;0.90;;;8.70;1.00;;;;;;4985223;28;20046;-77
2024/01/31 11:03:25;;;;;;;1.63;0.90;;;8.70;1.00;;;;;;4978196;28;20510;-77
2024/01/31 11:05:53;;;;;;;2.90;0.88;;;8.70;1.00;;;;;;4997664;28;20053;-77
2024/01/31 11:08:21;;;;;;;1.63;0.88;;;8.70;1.00;;;;;;5001708;28;20042;-77
2024/01/31 11:10:49;;;;;;;1.58;1.13;;;8.70;1.00;;;;;;4985172;28;20054;-77
2024/01/31 11:13:16;;;;;;;2.63;0.93;;;8.70;1.00;;;;;;4977620;28;20133;-78
2024/01/31 11:15:44;;;;;;;1.95;0.88;;;8.70;1.00;;;;;;4985766;28;20076;-77
2024/01/31 11:18:12;;;;;;;2.05;0.90;;;8.70;1.00;;;;;;4970421;28;20050;-77
2024/01/31 11:20:52;;;;;;;0.75;0.60;;;8.70;1.00;;;;;;4976734;28;20087;-77
2024/01/31 11:23:20;;;;;;;3.60;1.15;;;8.80;1.00;;;;;;4967829;28;20078;-76
2024/01/31 11:25:48;;;;;;;1.70;0.80;;;8.80;1.00;;;;;;4982148;28;20064;-76
2024/01/31 11:28:15;;;;;;;2.38;1.15;;;8.80;1.00;;;;;;4979164;28;20676;-76
2024/01/31 11:30:43;;;;;;;1.15;0.60;;;8.90;1.00;;;;;;4976106;28;20937;-77
2024/01/31 11:33:10;;;;;;;1.35;0.70;;;8.90;1.00;;;;;;4992428;28;20133;-76
2024/01/31 11:35:38;;;;;;;0.88;0.65;;;9.00;1.00;;;;;;4992707;28;20051;-76
2024/01/31 11:38:07;;;;;;;2.55;0.60;;;9.00;1.00;;;;;;5008851;28;20056;-75
2024/01/31 11:40:34;;;;;;;2.40;0.70;;;9.10;52.10;;;;;;4969533;28;20081;-76
2024/01/31 11:43:03;;;;;;;1.02;0.47;;;9.10;18.30;;;;;;4996783;28;20759;-75
2024/01/31 11:45:30;;;;;;;2.25;0.95;;;9.20;1.00;;;;;;4984339;28;20500;-75
2024/01/31 11:47:58;;;;;;;1.48;0.77;;;9.10;1.00;;;;;;4983629;28;20050;-75
2024/01/31 11:50:26;;;;;;;0.85;0.60;;;9.20;1.00;;;;;;5016529;28;20081;-75
2024/01/31 11:52:54;;;;;;;2.47;1.20;;;9.20;1.00;;;;;;4997902;28;20142;-75
2024/01/31 11:55:24;;;;;;;2.65;0.95;;;9.20;1.00;;;;;;4967830;28;20220;-76
2024/01/31 11:57:51;;;;;;;1.77;0.80;;;9.10;1.00;;;;;;4983691;28;20147;-75
2024/01/31 12:00:20;;;;;;;1.75;0.73;;;9.20;1.00;;;;;;4967812;28;20045;-76
2024/01/31 12:02:47;;;;;;;3.78;1.35;;;9.10;1.00;;;;;;4984833;28;20145;-76
2024/01/31 12:05:14;;;;;;;2.00;0.90;;;9.00;1.00;;;;;;4969412;28;20053;-75
2024/01/31 12:07:43;;;;;;;2.88;0.82;;;9.00;2.30;;;;;;5001378;28;20049;-75
2024/01/31 12:10:10;;;;;;;3.15;1.30;;;9.00;1.00;;;;;;5016334;28;20038;-75
2024/01/31 12:12:43;;;;;;;3.33;1.48;;;9.00;1.00;;;;;;4989336;28;20049;-77
2024/01/31 12:15:12;;;;;;;1.95;1.00;;;9.00;1.00;;;;;;4974911;28;20265;-78
2024/01/31 12:17:40;;;;;;;2.90;1.05;;;9.00;1.00;;;;;;4989415;28;20057;-76
2024/01/31 12:20:10;;;;;;;2.03;0.90;;;9.10;1.00;;;;;;5006228;28;20062;-76
2024/01/31 12:22:39;;;;;;;2.13;1.27;;;9.20;1.00;;;;;;4987194;28;20478;-77
2024/01/31 12:25:06;;;;;;;1.10;0.70;;;9.20;1.00;;;;;;4993895;28;20149;-77
2024/01/31 12:27:33;;;;;;;1.60;0.65;;;9.30;1.00;;;;;;4984920;28;20084;-77
2024/01/31 12:30:01;;;;;;;1.30;0.55;;;9.40;12.10;;;;;;4994271;28;20045;-77
2024/01/31 12:32:28;;;;;;;0.88;0.70;;;9.50;1.00;;;;;;5004013;28;20064;-77
2024/01/31 12:34:55;;;;;;;1.00;0.60;;;9.70;1.00;;;;;;4956767;28;20077;-76
2024/01/31 12:37:22;;;;;;;1.13;0.50;;;9.80;3.80;;;;;;4955091;28;20061;-77
2024/01/31 12:39:51;;;;;;;0.45;0.30;;;9.90;3.90;;;;;;4956781;28;20133;-75
2024/01/31 12:42:18;;;;;;;1.67;0.60;;;10.00;1.50;;;;;;4978737;28;20042;-76
2024/01/31 12:44:45;;;;;;;1.45;0.60;;;10.00;5.80;;;;;;4969567;28;20059;-76
2024/01/31 12:47:13;;;;;;;0.70;0.50;;;10.10;25.50;;;;;;4951644;28;20471;-75
2024/01/31 12:49:43;;;;;;;2.25;0.60;;;10.20;15.40;;;;;;4949803;28;20101;-76
2024/01/31 12:52:11;;;;;;;2.40;1.50;;;10.20;7.30;;;;;;4980614;28;20054;-76
2024/01/31 12:54:40;;;;;;;1.52;0.70;;;10.20;90.00;;;;;;4976433;28;20057;-76
2024/01/31 12:57:07;;;;;;;0.95;0.50;;;10.20;12.90;;;;;;4982530;28;20052;-76
2024/01/31 12:59:37;;;;;;;0.77;0.40;;;10.20;4.20;;;;;;4982341;28;20056;-76
2024/01/31 13:02:05;;;;;;;0.57;0.50;;;10.30;1.00;;;;;;4949660;28;20096;-76
2024/01/31 13:04:32;;;;;;;1.15;0.75;;;10.30;1.00;;;;;;4998650;28;20112;-76